.
WxDataArchive / Data Records for 2011-03-05
2011-03-04 March 2011 2011-03-06

Data Records for Saturday, 05 March 2011

Time	Temp	Chill	HIndex	Humid	Dewpt	 Wind 	HiWind	WindDir	Rain 	Barom 
-----	----	-----	------	-----	-----	------	------	-------	-----	----- 
00:00	51.0	51.0	51.0	95	49.6	2	5	90	0.02	29.951 
00:05	51.0	51.0	51.0	95	49.6	2	6	90	0.02	29.951 
00:10	51.0	51.0	51.0	95	49.6	1	4	45	0.01	29.951 
00:15	51.0	51.0	51.0	95	49.6	2	7	90	0.02	29.946 
00:20	51.1	51.1	51.1	95	49.7	2	4	90	0.00	29.946 
00:25	51.1	51.1	51.1	95	49.7	1	4	112	0.01	29.946 
00:30	51.1	51.1	51.1	95	49.7	1	6	112	0.01	29.943 
00:35	51.1	51.1	51.1	95	49.7	1	4	202	0.01	29.943 
00:40	51.1	51.1	51.1	95	49.7	1	4	45	0.00	29.943 
00:45	51.3	51.3	51.3	95	49.9	2	7	68	0.01	29.931 
00:50	51.3	51.3	51.3	95	49.9	3	9	90	0.01	29.931 
00:55	51.3	51.3	51.3	95	49.9	2	5	90	0.00	29.931 
01:00	51.4	51.4	51.4	95	50.0	3	8	112	0.01	29.919 
01:05	51.4	51.4	51.4	95	50.0	2	4	90	0.01	29.919 
01:10	51.4	51.4	51.4	95	50.0	3	9	90	0.00	29.919 
01:15	51.4	51.4	51.4	95	50.0	2	5	90	0.00	29.911 
01:20	51.4	51.4	51.4	95	50.0	3	7	90	0.01	29.911 
01:25	51.4	51.4	51.4	95	50.0	3	7	90	0.01	29.911 
01:30	51.4	51.4	51.4	95	50.0	2	7	90	0.00	29.895 
01:35	51.3	51.3	51.3	94	49.6	2	7	90	0.00	29.895 
01:40	51.3	51.3	51.3	95	49.9	3	10	90	0.00	29.895 
01:45	51.3	51.3	51.3	94	49.6	2	10	112	0.01	29.885 
01:50	51.3	51.3	51.3	94	49.6	2	7	68	0.00	29.885 
01:55	51.3	51.3	51.3	94	49.6	1	4	90	0.00	29.885 
02:00	51.3	51.3	51.3	94	49.6	2	6	112	0.00	29.874 
02:05	51.3	51.3	51.3	94	49.6	2	10	90	0.00	29.874 
02:10	51.3	51.3	51.3	94	49.6	2	7	112	0.01	29.874 
02:15	51.3	51.3	51.3	94	49.6	2	8	248	0.01	29.876 
02:20	51.3	51.3	51.3	94	49.6	3	8	68	0.00	29.876 
02:25	51.3	51.3	51.3	94	49.6	1	5	270	0.00	29.876 
02:30	51.3	51.3	51.3	94	49.6	1	5	248	0.00	29.865 
02:35	51.1	51.1	51.1	94	49.4	2	5	248	0.00	29.865 
02:40	51.3	51.3	51.3	93	49.3	2	6	68	0.00	29.865 
02:45	51.1	51.1	51.1	93	49.1	2	12	270	0.00	29.861 
02:50	51.1	51.1	51.1	93	49.1	2	12	248	0.00	29.861 
02:55	51.3	51.3	51.3	93	49.3	3	9	248	0.00	29.861 
03:00	51.3	51.3	51.3	93	49.3	3	7	248	0.00	29.858 
03:05	51.3	51.3	51.3	92	49.1	2	9	248	0.00	29.858 
03:10	51.3	51.3	51.3	92	49.1	2	9	248	0.00	29.858 
03:15	51.3	51.3	51.3	92	49.1	3	9	248	0.00	29.851 
03:20	51.4	51.4	51.4	92	49.2	3	9	270	0.00	29.851 
03:25	51.4	51.4	51.4	92	49.2	2	10	90	0.00	29.851 
03:30	51.4	51.4	51.4	92	49.2	4	10	248	0.00	29.845 
03:35	51.4	51.4	51.4	92	49.2	3	12	248	0.00	29.845 
03:40	51.4	51.4	51.4	91	48.9	2	9	248	0.00	29.845 
03:45	51.3	51.3	51.3	91	48.8	2	9	248	0.00	29.843 
03:50	51.3	51.3	51.3	91	48.8	3	7	248	0.00	29.843 
03:55	51.3	51.3	51.3	92	49.1	3	11	248	0.01	29.843 
04:00	51.3	51.3	51.3	91	48.8	3	10	270	0.00	29.833 
04:05	51.3	51.3	51.3	92	49.1	3	7	248	0.00	29.833 
04:10	51.3	51.3	51.3	92	49.1	3	9	248	0.00	29.833 
04:15	51.3	51.3	51.3	92	49.1	2	7	248	0.00	29.829 
04:20	51.3	51.3	51.3	92	49.1	3	10	248	0.00	29.829 
04:25	51.3	51.3	51.3	92	49.1	3	7	248	0.00	29.829 
04:30	51.3	51.3	51.3	92	49.1	3	14	270	0.00	29.829 
04:35	51.3	51.3	51.3	92	49.1	3	9	248	0.00	29.829 
04:40	51.3	51.3	51.3	92	49.1	3	7	248	0.00	29.829 
04:45	51.1	51.1	51.1	92	48.9	2	8	270	0.00	29.822 
04:50	51.1	51.1	51.1	92	48.9	3	9	225	0.01	29.822 
04:55	51.1	51.1	51.1	92	48.9	2	6	248	0.00	29.822 
05:00	51.0	51.0	51.0	92	48.8	2	6	135	0.00	29.814 
05:05	51.0	51.0	51.0	93	49.0	2	7	292	0.00	29.814 
05:10	51.0	51.0	51.0	93	49.0	3	7	270	0.00	29.814 
05:15	51.0	51.0	51.0	93	49.0	2	9	270	0.00	29.813 
05:20	50.8	50.8	50.8	93	48.8	2	10	270	0.00	29.813 
05:25	50.8	50.8	50.8	93	48.8	2	7	248	0.00	29.813 
05:30	50.8	50.8	50.8	92	48.6	3	9	248	0.00	29.813 
05:35	50.8	50.8	50.8	92	48.6	2	7	68	0.00	29.813 
05:40	50.8	50.8	50.8	92	48.6	3	10	248	0.00	29.813 
05:45	50.8	50.8	50.8	92	48.6	2	10	248	0.00	29.812 
05:50	50.8	50.8	50.8	92	48.6	2	5	22	0.00	29.812 
05:55	50.8	50.8	50.8	92	48.6	2	9	292	0.00	29.812 
06:00	50.7	50.7	50.7	92	48.5	2	6	292	0.00	29.811 
06:05	50.8	50.8	50.8	92	48.6	2	5	292	0.00	29.811 
06:10	50.8	50.8	50.8	92	48.6	2	5	270	0.00	29.811 
06:15	50.8	50.8	50.8	92	48.6	2	10	270	0.00	29.812 
06:20	50.8	50.8	50.8	92	48.6	3	9	248	0.00	29.812 
06:25	50.8	50.8	50.8	92	48.6	2	4	270	0.00	29.812 
06:30	50.8	50.8	50.8	92	48.6	1	4	68	0.00	29.815 
06:35	50.8	50.8	50.8	92	48.6	2	9	270	0.00	29.815 
06:40	50.8	50.8	50.8	92	48.6	1	6	248	0.00	29.815 
06:45	50.8	50.8	50.8	92	48.6	2	7	248	0.01	29.818 
06:50	50.8	50.8	50.8	93	48.8	1	6	270	0.00	29.818 
06:55	50.8	50.8	50.8	93	48.8	1	6	270	0.00	29.818 
07:00	50.8	50.8	50.8	93	48.8	1	6	315	0.00	29.817 
07:05	50.7	50.7	50.7	93	48.7	1	4	248	0.00	29.817 
07:10	50.7	50.7	50.7	93	48.7	1	4	248	0.01	29.817 
07:15	50.7	50.7	50.7	93	48.7	1	5	270	0.00	29.818 
07:20	50.7	50.7	50.7	93	48.7	0	2	135	0.00	29.818 
07:25	50.7	50.7	50.7	94	49.0	1	4	248	0.01	29.818 
07:30	50.7	50.7	50.7	94	49.0	1	5	270	0.00	29.815 
07:35	50.8	50.8	50.8	94	49.1	1	2	270	0.00	29.815 
07:40	50.8	50.8	50.8	94	49.1	1	4	248	0.00	29.815 
07:45	50.8	50.8	50.8	94	49.1	1	4	248	0.00	29.823 
07:50	50.8	50.8	50.8	94	49.1	1	4	248	0.00	29.823 
07:55	50.8	50.8	50.8	94	49.1	1	3	248	0.00	29.823 
08:00	51.0	51.0	51.0	94	49.3	1	5	248	0.00	29.827 
08:05	51.0	51.0	51.0	95	49.6	1	5	248	0.00	29.827 
08:10	51.0	51.0	51.0	95	49.6	1	4	248	0.00	29.827 
08:15	51.0	51.0	51.0	95	49.6	1	3	248	0.01	29.822 
08:20	51.0	51.0	51.0	95	49.6	1	4	248	0.00	29.822 
08:25	51.0	51.0	51.0	95	49.6	1	6	248	0.00	29.822 
08:30	51.0	51.0	51.0	95	49.6	1	3	248	0.00	29.829 
08:35	51.0	51.0	51.0	95	49.6	1	6	248	0.00	29.829 
08:40	51.0	51.0	51.0	95	49.6	1	3	248	0.00	29.829 
08:45	51.0	51.0	51.0	95	49.6	1	4	248	0.01	29.829 
08:50	51.0	51.0	51.0	95	49.6	1	3	248	0.00	29.829 
08:55	50.8	50.8	50.8	95	49.4	1	4	248	0.00	29.829 
09:00	50.8	50.8	50.8	95	49.4	1	4	248	0.01	29.832 
09:05	51.0	51.0	51.0	95	49.6	1	2	248	0.00	29.832 
09:10	49.2	49.2	49.2	93	47.3	2	5	315	0.01	29.832 
09:15	48.0	48.0	48.0	94	46.4	1	3	315	0.00	29.847 
09:20	46.7	46.7	46.7	93	44.8	1	3	338	0.00	29.847 
09:25	45.4	45.4	45.4	93	43.5	1	5	315	0.01	29.847 
09:30	44.3	44.3	44.3	93	42.4	2	4	270	0.00	29.857 
09:35	43.5	43.5	43.5	93	41.6	2	4	315	0.00	29.857 
09:40	42.8	42.8	42.8	93	40.9	1	3	0	0.00	29.857 
09:45	42.3	42.3	42.3	93	40.4	1	4	0	0.00	29.872 
09:50	41.9	41.9	41.9	93	40.0	2	4	292	0.01	29.872 
09:55	41.2	41.2	41.2	93	39.3	2	4	292	0.00	29.872 
10:00	40.6	40.6	40.6	93	38.7	1	3	315	0.00	29.887 
10:05	40.3	40.3	40.3	93	38.4	2	5	270	0.00	29.887 
10:10	39.9	39.9	39.9	93	38.0	1	3	315	0.00	29.887 
10:15	39.6	39.6	39.6	93	37.7	2	4	292	0.01	29.892 
10:20	38.6	38.6	38.6	93	36.8	2	5	315	0.00	29.892 
10:25	37.8	37.8	37.8	93	36.0	2	5	270	0.00	29.892 
10:30	37.3	37.3	37.3	93	35.5	2	5	270	0.00	29.915 
10:35	37.2	37.2	37.2	93	35.4	1	4	315	0.00	29.915 
10:40	37.0	37.0	37.0	93	35.2	2	5	292	0.00	29.915 
10:45	36.9	36.9	36.9	93	35.1	1	3	270	0.00	29.923 
10:50	36.9	36.9	36.9	94	35.3	2	6	270	0.01	29.923 
10:55	36.8	36.8	36.8	94	35.2	2	5	270	0.00	29.923 
11:00	36.5	36.5	36.5	94	34.9	2	6	338	0.00	29.929 
11:05	36.3	36.3	36.3	94	34.7	2	5	315	0.00	29.929 
11:10	36.3	36.3	36.3	94	34.7	2	5	315	0.00	29.929 
11:15	36.3	36.3	36.3	94	34.7	1	6	270	0.00	29.939 
11:20	36.3	36.3	36.3	94	34.7	1	3	270	0.00	29.939 
11:25	36.0	36.0	36.0	94	34.4	2	7	22	0.00	29.939 
11:30	35.9	35.9	35.9	94	34.3	3	6	315	0.00	29.940 
11:35	35.9	35.9	35.9	94	34.3	2	5	0	0.00	29.940 
11:40	36.0	36.0	36.0	94	34.4	1	4	270	0.00	29.940 
11:45	36.2	36.2	36.2	94	34.6	1	6	22	0.00	29.941 
11:50	36.3	36.3	36.3	94	34.7	1	5	0	0.00	29.941 
11:55	36.3	36.3	36.3	94	34.7	1	3	270	0.00	29.941 
12:00	36.3	36.3	36.3	93	34.5	1	4	315	0.00	29.950 
12:05	36.2	36.2	36.2	93	34.4	1	3	315	0.00	29.950 
12:10	36.2	36.2	36.2	93	34.4	2	6	292	0.00	29.950 
12:15	36.3	36.3	36.3	93	34.5	1	5	0	0.00	29.956 
12:20	36.3	36.3	36.3	93	34.5	0	3	0	0.00	29.956 
12:25	36.3	36.3	36.3	93	34.5	1	3	315	0.00	29.956 
12:30	36.3	36.3	36.3	92	34.2	2	9	270	0.00	29.961 
12:35	36.5	36.5	36.5	92	34.4	1	2	270	0.00	29.961 
12:40	36.3	36.3	36.3	92	34.2	2	5	270	0.00	29.961 
12:45	36.2	36.2	36.2	92	34.1	2	5	292	0.00	29.963 
12:50	36.0	36.0	36.0	92	33.9	2	6	292	0.00	29.963 
12:55	35.9	35.9	35.9	91	33.5	2	7	338	0.00	29.963 
13:00	35.9	35.9	35.9	91	33.5	1	5	22	0.00	29.966 
13:05	35.9	35.9	35.9	91	33.5	1	4	338	0.00	29.966 
13:10	35.8	35.8	35.8	91	33.4	2	5	338	0.00	29.966 
13:15	35.8	35.8	35.8	91	33.4	2	5	248	0.00	29.961 
13:20	35.8	35.8	35.8	91	33.4	1	5	315	0.00	29.961 
13:25	35.5	35.5	35.5	91	33.1	2	5	338	0.00	29.961 
13:30	35.5	35.5	35.5	91	33.1	1	5	292	0.00	29.962 
13:35	35.3	35.3	35.3	90	32.7	2	6	338	0.00	29.962 
13:40	35.3	35.3	35.3	90	32.7	2	6	45	0.00	29.962 
13:45	35.5	35.5	35.5	90	32.9	1	4	0	0.00	29.962 
13:50	35.5	35.5	35.5	90	32.9	1	3	292	0.00	29.962 
13:55	35.3	35.3	35.3	90	32.7	1	4	22	0.00	29.962 
14:00	35.3	35.3	35.3	90	32.7	1	5	315	0.00	29.966 
14:05	35.3	35.3	35.3	90	32.7	1	5	315	0.00	29.966 
14:10	35.3	35.3	35.3	90	32.7	2	4	315	0.00	29.966 
14:15	35.3	35.3	35.3	90	32.7	1	3	338	0.00	29.952 
14:20	35.5	35.5	35.5	90	32.9	1	5	338	0.00	29.952 
14:25	35.3	35.3	35.3	89	32.4	1	5	0	0.00	29.952 
14:30	35.3	35.3	35.3	89	32.4	1	3	22	0.00	29.955 
14:35	35.3	35.3	35.3	89	32.4	1	5	45	0.01	29.955 
14:40	35.2	35.2	35.2	89	32.3	1	4	315	0.00	29.955 
14:45	35.2	35.2	35.2	88	32.0	2	4	338	0.00	29.954 
14:50	35.3	35.3	35.3	88	32.1	1	4	0	0.00	29.954 
14:55	35.3	35.3	35.3	88	32.1	1	4	0	0.00	29.954 
15:00	35.3	35.3	35.3	88	32.1	1	5	315	0.00	29.958 
15:05	35.3	35.3	35.3	88	32.1	1	4	22	0.00	29.958 
15:10	35.3	35.3	35.3	88	32.1	1	4	0	0.00	29.958 
15:15	35.3	35.3	35.3	87	31.8	1	5	338	0.00	29.963 
15:20	35.2	35.2	35.2	87	31.7	1	4	338	0.00	29.963 
15:25	35.2	35.2	35.2	87	31.7	1	3	338	0.00	29.963 
15:30	35.3	35.3	35.3	87	31.8	1	3	0	0.00	29.970 
15:35	35.3	35.3	35.3	87	31.8	1	5	270	0.00	29.970 
15:40	35.2	35.2	35.2	86	31.4	1	4	315	0.00	29.970 
15:45	35.2	35.2	35.2	86	31.4	1	3	338	0.00	29.984 
15:50	35.2	35.2	35.2	86	31.4	0	2	0	0.00	29.984 
15:55	35.2	35.2	35.2	86	31.4	1	3	338	0.00	29.984 
16:00	35.2	35.2	35.2	86	31.4	1	3	338	0.00	29.987 
16:05	34.9	34.9	34.9	86	31.1	1	4	22	0.00	29.987 
16:10	34.7	34.7	34.7	86	30.9	1	5	338	0.00	29.987 
16:15	34.6	34.6	34.6	86	30.9	1	5	22	0.00	29.988 
16:20	34.6	34.6	34.6	86	30.9	1	6	338	0.00	29.988 
16:25	34.4	34.4	34.4	86	30.7	1	5	22	0.00	29.988 
16:30	34.3	34.3	34.3	86	30.6	1	5	315	0.00	29.997 
16:35	34.3	34.3	34.3	86	30.6	1	4	315	0.00	29.997 
16:40	34.3	34.3	34.3	87	30.8	0	2	315	0.00	29.997 
16:45	34.1	34.1	34.1	87	30.6	1	2	315	0.00	30.006 
16:50	34.0	34.0	34.0	87	30.5	1	5	315	0.00	30.006 
16:55	33.7	33.7	33.7	88	30.5	1	6	270	0.00	30.006 
17:00	33.5	33.5	33.5	88	30.3	1	4	292	0.00	30.008 
17:05	33.4	33.4	33.4	89	30.5	0	2	292	0.00	30.008 
17:10	33.2	33.2	33.2	89	30.3	0	1	292	0.00	30.008 
17:15	33.1	33.1	33.1	90	30.5	1	3	292	0.00	30.012 
17:20	33.1	33.1	33.1	90	30.5	0	2	338	0.00	30.012 
17:25	32.9	32.9	32.9	90	30.3	0	2	338	0.00	30.012 
17:30	32.8	32.8	32.8	91	30.5	1	2	338	0.00	30.018 
17:35	32.7	32.7	32.7	91	30.4	1	3	338	0.00	30.018 
17:40	32.7	32.7	32.7	91	30.4	1	4	338	0.00	30.018 
17:45	32.7	32.7	32.7	92	30.6	1	4	338	0.00	30.021 
17:50	32.7	32.7	32.7	92	30.6	1	3	0	0.00	30.021 
17:55	32.5	32.5	32.5	92	30.4	1	4	315	0.00	30.021 
18:00	32.5	32.5	32.5	92	30.4	1	4	270	0.00	30.033 
18:05	32.5	32.5	32.5	92	30.4	1	2	270	0.00	30.033 
18:10	32.5	32.5	32.5	92	30.4	1	4	270	0.00	30.033 
18:15	32.5	32.5	32.5	92	30.4	1	3	0	0.00	30.036 
18:20	32.5	32.5	32.5	92	30.4	0	2	0	0.00	30.036 
18:25	32.4	32.4	32.4	92	30.3	1	3	270	0.00	30.036 
18:30	32.4	32.4	32.4	92	30.3	0	1	338	0.00	30.038 
18:35	32.4	32.4	32.4	92	30.3	0	2	338	0.00	30.038 
18:40	32.2	32.2	32.2	92	30.1	0	2	338	0.00	30.038 
18:45	32.2	32.2	32.2	93	30.4	1	3	0	0.00	30.039 
18:50	32.2	32.2	32.2	93	30.4	0	2	0	0.00	30.039 
18:55	32.2	32.2	32.2	93	30.4	0	3	270	0.00	30.039 
19:00	32.2	32.2	32.2	93	30.4	1	2	270	0.00	30.051 
19:05	32.1	32.1	32.1	93	30.3	0	2	0	0.00	30.051 
19:10	32.1	32.1	32.1	93	30.3	0	2	0	0.00	30.051 
19:15	32.1	32.1	32.1	93	30.3	0	3	338	0.00	30.052 
19:20	32.1	32.1	32.1	93	30.3	0	2	338	0.00	30.052 
19:25	31.9	31.9	31.9	93	30.1	0	2	0	0.00	30.052 
19:30	31.9	31.9	31.9	93	30.1	0	2	0	0.00	30.045 
19:35	31.9	31.9	31.9	93	30.1	0	3	270	0.00	30.045 
19:40	31.9	31.9	31.9	93	30.1	0	3	270	0.00	30.045 
19:45	31.9	31.9	31.9	93	30.1	0	4	315	0.00	30.068 
19:50	31.9	31.9	31.9	93	30.1	0	2	22	0.00	30.068 
19:55	31.9	31.9	31.9	93	30.1	0	1	338	0.00	30.068 
20:00	31.9	31.9	31.9	93	30.1	0	1	338	0.00	30.067 
20:05	31.9	31.9	31.9	93	30.1	0	2	338	0.00	30.067 
20:10	31.9	31.9	31.9	93	30.1	0	2	338	0.00	30.067 
20:15	31.9	31.9	31.9	93	30.1	0	2	338	0.00	30.070 
20:20	31.9	31.9	31.9	93	30.1	0	2	338	0.00	30.070 
20:25	31.9	31.9	31.9	93	30.1	0	1	338	0.00	30.070 
20:30	31.9	31.9	31.9	93	30.1	0	1	338	0.00	30.077 
20:35	31.9	31.9	31.9	93	30.1	0	1	338	0.00	30.077 
20:40	31.9	31.9	31.9	93	30.1	0	2	338	0.00	30.077 
20:45	31.9	31.9	31.9	93	30.1	0	1	270	0.00	30.085 
20:50	31.9	31.9	31.9	93	30.1	0	3	270	0.00	30.085 
20:55	31.9	31.9	31.9	93	30.1	0	1	45	0.00	30.085 
21:00	31.9	31.9	31.9	93	30.1	0	0	---	0.00	30.097 
21:05	31.9	31.9	31.9	93	30.1	0	0	---	0.00	30.097 
21:10	31.9	31.9	31.9	93	30.1	0	0	---	0.00	30.097 
21:15	31.9	31.9	31.9	93	30.1	0	0	---	0.00	30.100 
21:20	31.9	31.9	31.9	93	30.1	0	0	---	0.00	30.100 
21:25	31.9	31.9	31.9	94	30.4	0	0	---	0.00	30.100 
21:30	31.8	31.8	31.8	94	30.3	0	0	---	0.00	30.096 
21:35	31.8	31.8	31.8	94	30.3	0	0	---	0.00	30.096 
21:40	31.8	31.8	31.8	94	30.3	0	0	---	0.00	30.096 
21:45	31.8	31.8	31.8	94	30.3	0	2	248	0.00	30.096 
21:50	31.6	31.6	31.6	94	30.1	0	2	248	0.00	30.096 
21:55	31.6	31.6	31.6	94	30.1	0	2	248	0.00	30.096 
22:00	31.5	31.5	31.5	94	30.0	0	1	45	0.00	30.095 
22:05	31.5	31.5	31.5	94	30.0	0	3	270	0.00	30.095 
22:10	31.3	31.3	31.3	94	29.8	0	2	248	0.00	30.095 
22:15	31.3	31.3	31.3	94	29.8	0	2	0	0.00	30.105 
22:20	31.3	31.3	31.3	94	29.8	0	1	0	0.00	30.105 
22:25	31.3	31.3	31.3	93	29.5	0	2	0	0.00	30.105 
22:30	31.3	31.3	31.3	93	29.5	0	2	0	0.00	30.101 
22:35	31.3	31.3	31.3	93	29.5	0	3	0	0.00	30.101 
22:40	31.3	31.3	31.3	93	29.5	0	2	270	0.00	30.101 
22:45	31.5	31.5	31.5	93	29.7	0	2	270	0.00	30.114 
22:50	31.5	31.5	31.5	93	29.7	0	1	270	0.00	30.114 
22:55	31.5	31.5	31.5	93	29.7	0	1	270	0.00	30.114 
23:00	31.5	31.5	31.5	93	29.7	0	1	270	0.00	30.119 
23:05	31.5	31.5	31.5	93	29.7	0	1	270	0.00	30.119 
23:10	31.5	31.5	31.5	93	29.7	0	1	270	0.00	30.119 
23:15	31.5	31.5	31.5	93	29.7	0	1	270	0.00	30.116 
23:20	31.5	31.5	31.5	93	29.7	0	1	270	0.00	30.116 
23:25	31.5	31.5	31.5	93	29.7	0	2	270	0.00	30.116 
23:30	31.5	31.5	31.5	93	29.7	0	2	270	0.00	30.114 
23:35	31.3	31.3	31.3	93	29.5	0	2	315	0.00	30.114 
23:40	31.3	31.3	31.3	93	29.5	0	1	315	0.00	30.114 
23:45	31.3	31.3	31.3	92	29.3	0	1	315	0.00	30.119 
23:50	31.3	31.3	31.3	92	29.3	0	2	338	0.00	30.119 
23:55	31.3	31.3	31.3	92	29.3	0	1	338	0.00	30.119 

CoCoRaHS
IN-AL-39
A2 Web Hosting
Creative Commons License
GoDaddy
search engine by freefind advanced

loaded 2018-11-13 22:08:58 • last modified 2010-11-18 10:43:29
Privacy PolicyDisclaimer
• wx.awcolley.com is powered by PmWiki v.2002016 •
• all content (unless otherwise noted) © 2018 A W Colley